sensor_id;sensor_type;location;lat;lon;timestamp;P1;durP1;ratioP1;P2;durP2;ratioP2
34505;SDS011;20748;42.632;23.198;2023-03-05T00:00:01;29.70;;;12.88;;
34505;SDS011;20748;42.632;23.198;2023-03-05T00:02:44;20.65;;;11.00;;
34505;SDS011;20748;42.632;23.198;2023-03-05T00:05:16;28.60;;;12.25;;
34505;SDS011;20748;42.632;23.198;2023-03-05T00:07:49;35.15;;;12.23;;
34505;SDS011;20748;42.632;23.198;2023-03-05T00:10:22;24.83;;;12.07;;
34505;SDS011;20748;42.632;23.198;2023-03-05T00:12:55;26.20;;;10.68;;
34505;SDS011;20748;42.632;23.198;2023-03-05T00:15:27;27.38;;;12.43;;
34505;SDS011;20748;42.632;23.198;2023-03-05T00:17:59;34.63;;;14.80;;
34505;SDS011;20748;42.632;23.198;2023-03-05T00:20:39;36.38;;;14.90;;
34505;SDS011;20748;42.632;23.198;2023-03-05T00:23:12;24.33;;;12.48;;
34505;SDS011;20748;42.632;23.198;2023-03-05T00:25:44;30.73;;;13.00;;
34505;SDS011;20748;42.632;23.198;2023-03-05T00:28:17;29.20;;;13.13;;
34505;SDS011;20748;42.632;23.198;2023-03-05T00:30:50;30.85;;;14.43;;
34505;SDS011;20748;42.632;23.198;2023-03-05T00:33:22;27.75;;;14.05;;
34505;SDS011;20748;42.632;23.198;2023-03-05T00:35:55;35.00;;;13.63;;
34505;SDS011;20748;42.632;23.198;2023-03-05T00:38:29;35.33;;;14.05;;
34505;SDS011;20748;42.632;23.198;2023-03-05T00:41:01;26.58;;;11.35;;
34505;SDS011;20748;42.632;23.198;2023-03-05T00:43:34;41.15;;;17.38;;
34505;SDS011;20748;42.632;23.198;2023-03-05T00:46:06;37.47;;;19.48;;
34505;SDS011;20748;42.632;23.198;2023-03-05T00:48:39;35.00;;;14.38;;
34505;SDS011;20748;42.632;23.198;2023-03-05T00:51:11;28.63;;;12.50;;
34505;SDS011;20748;42.632;23.198;2023-03-05T00:53:44;26.27;;;12.43;;
34505;SDS011;20748;42.632;23.198;2023-03-05T00:56:16;24.92;;;10.95;;
34505;SDS011;20748;42.632;23.198;2023-03-05T00:58:49;26.30;;;12.35;;
34505;SDS011;20748;42.632;23.198;2023-03-05T01:01:23;25.33;;;11.20;;
34505;SDS011;20748;42.632;23.198;2023-03-05T01:03:56;30.23;;;10.80;;
34505;SDS011;20748;42.632;23.198;2023-03-05T01:06:29;33.47;;;12.18;;
34505;SDS011;20748;42.632;23.198;2023-03-05T01:09:02;40.95;;;15.50;;
34505;SDS011;20748;42.632;23.198;2023-03-05T01:11:34;34.03;;;13.75;;
34505;SDS011;20748;42.632;23.198;2023-03-05T01:14:07;24.95;;;10.85;;
34505;SDS011;20748;42.632;23.198;2023-03-05T01:16:40;29.42;;;11.73;;
34505;SDS011;20748;42.632;23.198;2023-03-05T01:19:13;28.35;;;11.10;;
34505;SDS011;20748;42.632;23.198;2023-03-05T01:21:47;23.83;;;11.68;;
34505;SDS011;20748;42.632;23.198;2023-03-05T01:24:20;29.52;;;13.40;;
34505;SDS011;20748;42.632;23.198;2023-03-05T01:26:52;24.83;;;11.35;;
34505;SDS011;20748;42.632;23.198;2023-03-05T01:29:26;34.63;;;13.52;;
34505;SDS011;20748;42.632;23.198;2023-03-05T01:31:58;21.92;;;10.98;;
34505;SDS011;20748;42.632;23.198;2023-03-05T01:34:32;23.95;;;11.15;;
34505;SDS011;20748;42.632;23.198;2023-03-05T01:37:06;33.25;;;13.05;;
34505;SDS011;20748;42.632;23.198;2023-03-05T01:39:39;28.70;;;12.43;;
34505;SDS011;20748;42.632;23.198;2023-03-05T01:42:11;23.75;;;11.23;;
34505;SDS011;20748;42.632;23.198;2023-03-05T01:44:58;28.15;;;12.50;;
34505;SDS011;20748;42.632;23.198;2023-03-05T01:47:32;20.30;;;11.23;;
34505;SDS011;20748;42.632;23.198;2023-03-05T01:50:05;29.77;;;11.95;;
34505;SDS011;20748;42.632;23.198;2023-03-05T01:52:42;29.10;;;12.48;;
34505;SDS011;20748;42.632;23.198;2023-03-05T01:55:18;22.40;;;10.70;;
34505;SDS011;20748;42.632;23.198;2023-03-05T01:57:54;28.27;;;12.27;;
34505;SDS011;20748;42.632;23.198;2023-03-05T02:00:33;26.65;;;12.15;;
34505;SDS011;20748;42.632;23.198;2023-03-05T02:03:08;23.95;;;12.18;;
34505;SDS011;20748;42.632;23.198;2023-03-05T02:05:43;30.88;;;13.60;;
34505;SDS011;20748;42.632;23.198;2023-03-05T02:08:16;30.02;;;12.60;;
34505;SDS011;20748;42.632;23.198;2023-03-05T02:10:50;23.38;;;11.15;;
34505;SDS011;20748;42.632;23.198;2023-03-05T02:13:28;24.52;;;11.85;;
34505;SDS011;20748;42.632;23.198;2023-03-05T02:16:05;24.55;;;10.38;;
34505;SDS011;20748;42.632;23.198;2023-03-05T02:18:38;25.50;;;11.80;;
34505;SDS011;20748;42.632;23.198;2023-03-05T02:21:11;24.88;;;11.30;;
34505;SDS011;20748;42.632;23.198;2023-03-05T02:23:45;29.83;;;12.63;;
34505;SDS011;20748;42.632;23.198;2023-03-05T02:26:17;31.10;;;13.13;;
34505;SDS011;20748;42.632;23.198;2023-03-05T02:28:50;28.00;;;12.43;;
34505;SDS011;20748;42.632;23.198;2023-03-05T02:31:27;25.23;;;11.75;;
34505;SDS011;20748;42.632;23.198;2023-03-05T02:34:01;37.90;;;13.30;;
34505;SDS011;20748;42.632;23.198;2023-03-05T02:36:34;29.88;;;12.23;;
34505;SDS011;20748;42.632;23.198;2023-03-05T02:39:07;24.73;;;11.70;;
34505;SDS011;20748;42.632;23.198;2023-03-05T02:41:40;27.42;;;12.35;;
34505;SDS011;20748;42.632;23.198;2023-03-05T02:44:13;35.90;;;13.32;;
34505;SDS011;20748;42.632;23.198;2023-03-05T02:46:45;34.75;;;14.13;;
34505;SDS011;20748;42.632;23.198;2023-03-05T02:49:18;34.85;;;15.15;;
34505;SDS011;20748;42.632;23.198;2023-03-05T02:51:51;32.20;;;13.15;;
34505;SDS011;20748;42.632;23.198;2023-03-05T02:54:23;29.30;;;15.82;;
34505;SDS011;20748;42.632;23.198;2023-03-05T02:56:56;28.85;;;13.02;;
34505;SDS011;20748;42.632;23.198;2023-03-05T02:59:28;26.85;;;12.45;;
34505;SDS011;20748;42.632;23.198;2023-03-05T03:02:01;28.00;;;13.93;;
34505;SDS011;20748;42.632;23.198;2023-03-05T03:04:34;27.52;;;12.45;;
34505;SDS011;20748;42.632;23.198;2023-03-05T03:07:07;22.05;;;10.82;;
34505;SDS011;20748;42.632;23.198;2023-03-05T03:09:39;32.92;;;13.20;;
34505;SDS011;20748;42.632;23.198;2023-03-05T03:12:13;19.50;;;9.20;;
34505;SDS011;20748;42.632;23.198;2023-03-05T03:14:45;29.80;;;13.80;;
34505;SDS011;20748;42.632;23.198;2023-03-05T03:17:18;27.30;;;14.50;;
34505;SDS011;20748;42.632;23.198;2023-03-05T03:19:50;26.50;;;12.13;;
34505;SDS011;20748;42.632;23.198;2023-03-05T03:22:24;30.85;;;14.70;;
34505;SDS011;20748;42.632;23.198;2023-03-05T03:24:56;29.70;;;14.07;;
34505;SDS011;20748;42.632;23.198;2023-03-05T03:27:28;30.02;;;11.90;;
34505;SDS011;20748;42.632;23.198;2023-03-05T03:30:01;26.10;;;12.48;;
34505;SDS011;20748;42.632;23.198;2023-03-05T03:32:35;27.27;;;12.90;;
34505;SDS011;20748;42.632;23.198;2023-03-05T03:35:08;32.13;;;11.77;;
34505;SDS011;20748;42.632;23.198;2023-03-05T03:37:42;30.63;;;11.25;;
34505;SDS011;20748;42.632;23.198;2023-03-05T03:40:14;21.90;;;11.10;;
34505;SDS011;20748;42.632;23.198;2023-03-05T03:42:47;25.80;;;10.57;;
34505;SDS011;20748;42.632;23.198;2023-03-05T03:45:22;17.95;;;9.48;;
34505;SDS011;20748;42.632;23.198;2023-03-05T03:47:55;20.15;;;9.68;;
34505;SDS011;20748;42.632;23.198;2023-03-05T03:50:27;20.92;;;9.25;;
34505;SDS011;20748;42.632;23.198;2023-03-05T03:53:00;20.48;;;9.68;;
34505;SDS011;20748;42.632;23.198;2023-03-05T03:55:33;17.55;;;7.63;;
34505;SDS011;20748;42.632;23.198;2023-03-05T03:58:06;25.05;;;7.43;;
34505;SDS011;20748;42.632;23.198;2023-03-05T04:00:39;21.90;;;7.13;;
34505;SDS011;20748;42.632;23.198;2023-03-05T04:03:11;14.55;;;8.02;;
34505;SDS011;20748;42.632;23.198;2023-03-05T04:05:44;19.50;;;7.93;;
34505;SDS011;20748;42.632;23.198;2023-03-05T04:08:17;16.77;;;7.57;;
34505;SDS011;20748;42.632;23.198;2023-03-05T04:10:49;18.20;;;8.32;;
34505;SDS011;20748;42.632;23.198;2023-03-05T04:13:22;18.77;;;6.80;;
34505;SDS011;20748;42.632;23.198;2023-03-05T04:15:55;16.98;;;6.72;;
34505;SDS011;20748;42.632;23.198;2023-03-05T04:18:27;19.35;;;8.50;;
34505;SDS011;20748;42.632;23.198;2023-03-05T04:21:03;17.23;;;6.95;;
34505;SDS011;20748;42.632;23.198;2023-03-05T04:23:37;18.98;;;7.25;;
34505;SDS011;20748;42.632;23.198;2023-03-05T04:26:09;25.30;;;8.57;;
34505;SDS011;20748;42.632;23.198;2023-03-05T04:28:42;24.38;;;11.38;;
34505;SDS011;20748;42.632;23.198;2023-03-05T04:31:14;13.77;;;6.28;;
34505;SDS011;20748;42.632;23.198;2023-03-05T04:33:47;30.25;;;10.35;;
34505;SDS011;20748;42.632;23.198;2023-03-05T04:36:20;23.75;;;9.25;;
34505;SDS011;20748;42.632;23.198;2023-03-05T04:38:53;29.27;;;7.82;;
34505;SDS011;20748;42.632;23.198;2023-03-05T04:41:25;24.95;;;8.32;;
34505;SDS011;20748;42.632;23.198;2023-03-05T04:43:57;18.33;;;7.47;;
34505;SDS011;20748;42.632;23.198;2023-03-05T04:46:30;19.20;;;7.28;;
34505;SDS011;20748;42.632;23.198;2023-03-05T04:49:02;20.23;;;8.40;;
34505;SDS011;20748;42.632;23.198;2023-03-05T04:51:35;14.20;;;7.78;;
34505;SDS011;20748;42.632;23.198;2023-03-05T04:54:08;15.77;;;7.45;;
34505;SDS011;20748;42.632;23.198;2023-03-05T04:56:40;22.35;;;7.50;;
34505;SDS011;20748;42.632;23.198;2023-03-05T04:59:12;14.65;;;6.78;;
34505;SDS011;20748;42.632;23.198;2023-03-05T05:01:45;17.83;;;7.95;;
34505;SDS011;20748;42.632;23.198;2023-03-05T05:04:17;18.58;;;8.18;;
34505;SDS011;20748;42.632;23.198;2023-03-05T05:06:49;15.65;;;7.95;;
34505;SDS011;20748;42.632;23.198;2023-03-05T05:09:25;30.20;;;10.85;;
34505;SDS011;20748;42.632;23.198;2023-03-05T05:11:58;22.33;;;9.65;;
34505;SDS011;20748;42.632;23.198;2023-03-05T05:14:30;16.05;;;7.57;;
34505;SDS011;20748;42.632;23.198;2023-03-05T05:17:04;16.55;;;7.60;;
34505;SDS011;20748;42.632;23.198;2023-03-05T05:19:37;23.75;;;8.57;;
34505;SDS011;20748;42.632;23.198;2023-03-05T05:22:09;16.60;;;7.80;;
34505;SDS011;20748;42.632;23.198;2023-03-05T05:24:42;17.67;;;7.30;;
34505;SDS011;20748;42.632;23.198;2023-03-05T05:27:14;21.58;;;8.05;;
34505;SDS011;20748;42.632;23.198;2023-03-05T05:29:47;23.40;;;9.85;;
34505;SDS011;20748;42.632;23.198;2023-03-05T05:32:21;16.35;;;7.10;;
34505;SDS011;20748;42.632;23.198;2023-03-05T05:34:54;10.52;;;6.15;;
34505;SDS011;20748;42.632;23.198;2023-03-05T05:37:28;18.80;;;6.55;;
34505;SDS011;20748;42.632;23.198;2023-03-05T05:40:01;12.32;;;6.03;;
34505;SDS011;20748;42.632;23.198;2023-03-05T05:42:36;16.88;;;7.18;;
34505;SDS011;20748;42.632;23.198;2023-03-05T05:45:09;17.88;;;6.78;;
34505;SDS011;20748;42.632;23.198;2023-03-05T05:47:41;15.35;;;7.70;;
34505;SDS011;20748;42.632;23.198;2023-03-05T05:50:14;14.45;;;6.68;;
34505;SDS011;20748;42.632;23.198;2023-03-05T05:52:47;23.08;;;9.32;;
34505;SDS011;20748;42.632;23.198;2023-03-05T05:55:20;15.45;;;7.95;;
34505;SDS011;20748;42.632;23.198;2023-03-05T05:57:52;20.83;;;8.35;;
34505;SDS011;20748;42.632;23.198;2023-03-05T06:00:25;10.82;;;5.15;;
34505;SDS011;20748;42.632;23.198;2023-03-05T06:02:57;17.38;;;6.97;;
34505;SDS011;20748;42.632;23.198;2023-03-05T06:05:30;32.80;;;16.52;;
34505;SDS011;20748;42.632;23.198;2023-03-05T06:08:02;19.05;;;9.30;;
34505;SDS011;20748;42.632;23.198;2023-03-05T06:10:35;18.45;;;7.30;;
34505;SDS011;20748;42.632;23.198;2023-03-05T06:13:08;34.33;;;11.18;;
34505;SDS011;20748;42.632;23.198;2023-03-05T06:15:40;33.88;;;11.70;;
34505;SDS011;20748;42.632;23.198;2023-03-05T06:18:13;16.40;;;7.15;;
34505;SDS011;20748;42.632;23.198;2023-03-05T06:20:45;12.98;;;7.32;;
34505;SDS011;20748;42.632;23.198;2023-03-05T06:23:25;16.70;;;6.72;;
34505;SDS011;20748;42.632;23.198;2023-03-05T06:25:59;12.35;;;5.05;;
34505;SDS011;20748;42.632;23.198;2023-03-05T06:28:33;13.95;;;5.68;;
34505;SDS011;20748;42.632;23.198;2023-03-05T06:31:07;14.38;;;6.18;;
34505;SDS011;20748;42.632;23.198;2023-03-05T06:33:41;17.77;;;5.93;;
34505;SDS011;20748;42.632;23.198;2023-03-05T06:36:15;16.13;;;5.95;;
34505;SDS011;20748;42.632;23.198;2023-03-05T06:38:49;16.35;;;6.03;;
34505;SDS011;20748;42.632;23.198;2023-03-05T06:41:25;13.93;;;5.25;;
34505;SDS011;20748;42.632;23.198;2023-03-05T06:43:59;15.43;;;5.50;;
34505;SDS011;20748;42.632;23.198;2023-03-05T06:46:34;13.27;;;5.25;;
34505;SDS011;20748;42.632;23.198;2023-03-05T06:49:08;12.48;;;4.80;;
34505;SDS011;20748;42.632;23.198;2023-03-05T06:51:42;8.90;;;4.60;;
34505;SDS011;20748;42.632;23.198;2023-03-05T06:54:14;15.27;;;6.13;;
34505;SDS011;20748;42.632;23.198;2023-03-05T06:56:49;12.25;;;5.03;;
34505;SDS011;20748;42.632;23.198;2023-03-05T06:59:21;23.23;;;9.55;;
34505;SDS011;20748;42.632;23.198;2023-03-05T07:01:54;11.57;;;6.10;;
34505;SDS011;20748;42.632;23.198;2023-03-05T07:04:26;14.20;;;5.22;;
34505;SDS011;20748;42.632;23.198;2023-03-05T07:06:58;21.58;;;7.95;;
34505;SDS011;20748;42.632;23.198;2023-03-05T07:09:31;25.20;;;11.20;;
34505;SDS011;20748;42.632;23.198;2023-03-05T07:12:04;13.50;;;5.97;;
34505;SDS011;20748;42.632;23.198;2023-03-05T07:14:37;17.20;;;7.45;;
34505;SDS011;20748;42.632;23.198;2023-03-05T07:17:10;16.70;;;8.07;;
34505;SDS011;20748;42.632;23.198;2023-03-05T07:19:45;16.73;;;7.40;;
34505;SDS011;20748;42.632;23.198;2023-03-05T07:22:17;17.20;;;7.55;;
34505;SDS011;20748;42.632;23.198;2023-03-05T07:24:50;14.10;;;6.10;;
34505;SDS011;20748;42.632;23.198;2023-03-05T07:27:23;15.32;;;7.25;;
34505;SDS011;20748;42.632;23.198;2023-03-05T07:29:56;13.88;;;5.80;;
34505;SDS011;20748;42.632;23.198;2023-03-05T07:32:28;10.70;;;5.03;;
34505;SDS011;20748;42.632;23.198;2023-03-05T07:35:01;14.82;;;5.40;;
34505;SDS011;20748;42.632;23.198;2023-03-05T07:37:33;15.50;;;5.95;;
34505;SDS011;20748;42.632;23.198;2023-03-05T07:40:06;17.63;;;5.78;;
34505;SDS011;20748;42.632;23.198;2023-03-05T07:42:40;21.60;;;8.25;;
34505;SDS011;20748;42.632;23.198;2023-03-05T07:45:19;20.77;;;7.88;;
34505;SDS011;20748;42.632;23.198;2023-03-05T07:47:51;27.90;;;14.10;;
34505;SDS011;20748;42.632;23.198;2023-03-05T07:50:24;25.70;;;7.85;;
34505;SDS011;20748;42.632;23.198;2023-03-05T07:52:56;15.60;;;6.95;;
34505;SDS011;20748;42.632;23.198;2023-03-05T07:55:28;23.15;;;8.57;;
34505;SDS011;20748;42.632;23.198;2023-03-05T07:58:01;21.63;;;7.38;;
34505;SDS011;20748;42.632;23.198;2023-03-05T08:00:34;19.35;;;8.57;;
34505;SDS011;20748;42.632;23.198;2023-03-05T08:03:06;24.50;;;10.13;;
34505;SDS011;20748;42.632;23.198;2023-03-05T08:05:38;19.38;;;7.95;;
34505;SDS011;20748;42.632;23.198;2023-03-05T08:08:12;19.08;;;7.15;;
34505;SDS011;20748;42.632;23.198;2023-03-05T08:10:44;17.42;;;6.55;;
34505;SDS011;20748;42.632;23.198;2023-03-05T08:13:17;15.18;;;6.93;;
34505;SDS011;20748;42.632;23.198;2023-03-05T08:15:49;14.55;;;7.38;;
34505;SDS011;20748;42.632;23.198;2023-03-05T08:18:22;18.02;;;7.57;;
34505;SDS011;20748;42.632;23.198;2023-03-05T08:20:54;16.23;;;6.53;;
34505;SDS011;20748;42.632;23.198;2023-03-05T08:23:27;26.38;;;10.65;;
34505;SDS011;20748;42.632;23.198;2023-03-05T08:25:59;18.98;;;7.75;;
34505;SDS011;20748;42.632;23.198;2023-03-05T08:28:32;20.25;;;8.35;;
34505;SDS011;20748;42.632;23.198;2023-03-05T08:31:07;19.50;;;7.00;;
34505;SDS011;20748;42.632;23.198;2023-03-05T08:33:40;20.35;;;8.25;;
34505;SDS011;20748;42.632;23.198;2023-03-05T08:36:13;30.83;;;8.73;;
34505;SDS011;20748;42.632;23.198;2023-03-05T08:38:45;12.60;;;6.72;;
34505;SDS011;20748;42.632;23.198;2023-03-05T08:41:18;18.63;;;7.38;;
34505;SDS011;20748;42.632;23.198;2023-03-05T08:43:52;19.30;;;7.97;;
34505;SDS011;20748;42.632;23.198;2023-03-05T08:46:24;17.15;;;9.05;;
34505;SDS011;20748;42.632;23.198;2023-03-05T08:48:56;19.85;;;9.48;;
34505;SDS011;20748;42.632;23.198;2023-03-05T08:51:29;20.88;;;7.53;;
34505;SDS011;20748;42.632;23.198;2023-03-05T08:54:01;18.92;;;7.10;;
34505;SDS011;20748;42.632;23.198;2023-03-05T08:56:37;22.13;;;10.82;;
34505;SDS011;20748;42.632;23.198;2023-03-05T08:59:10;22.42;;;9.93;;
34505;SDS011;20748;42.632;23.198;2023-03-05T09:01:44;24.23;;;10.60;;
34505;SDS011;20748;42.632;23.198;2023-03-05T09:04:17;21.48;;;8.68;;
34505;SDS011;20748;42.632;23.198;2023-03-05T09:06:49;22.73;;;8.88;;
34505;SDS011;20748;42.632;23.198;2023-03-05T09:09:21;27.42;;;9.45;;
34505;SDS011;20748;42.632;23.198;2023-03-05T09:11:56;17.08;;;7.78;;
34505;SDS011;20748;42.632;23.198;2023-03-05T09:14:29;22.52;;;7.70;;
34505;SDS011;20748;42.632;23.198;2023-03-05T09:17:01;23.67;;;8.23;;
34505;SDS011;20748;42.632;23.198;2023-03-05T09:19:34;17.67;;;7.65;;
34505;SDS011;20748;42.632;23.198;2023-03-05T09:22:06;21.20;;;8.73;;
34505;SDS011;20748;42.632;23.198;2023-03-05T09:24:38;17.63;;;6.90;;
34505;SDS011;20748;42.632;23.198;2023-03-05T09:27:11;17.98;;;8.13;;
34505;SDS011;20748;42.632;23.198;2023-03-05T09:29:44;20.77;;;9.02;;
34505;SDS011;20748;42.632;23.198;2023-03-05T09:32:16;28.30;;;11.93;;
34505;SDS011;20748;42.632;23.198;2023-03-05T09:34:49;24.25;;;9.02;;
34505;SDS011;20748;42.632;23.198;2023-03-05T09:37:21;17.15;;;6.97;;
34505;SDS011;20748;42.632;23.198;2023-03-05T09:39:54;15.73;;;6.85;;
34505;SDS011;20748;42.632;23.198;2023-03-05T09:42:36;18.23;;;7.75;;
34505;SDS011;20748;42.632;23.198;2023-03-05T09:45:26;21.63;;;8.73;;
34505;SDS011;20748;42.632;23.198;2023-03-05T09:48:05;18.48;;;7.15;;
34505;SDS011;20748;42.632;23.198;2023-03-05T09:50:47;15.73;;;6.82;;
34505;SDS011;20748;42.632;23.198;2023-03-05T09:53:29;22.02;;;10.00;;
34505;SDS011;20748;42.632;23.198;2023-03-05T09:56:09;21.35;;;9.15;;
34505;SDS011;20748;42.632;23.198;2023-03-05T09:58:43;27.58;;;12.13;;
34505;SDS011;20748;42.632;23.198;2023-03-05T10:01:20;32.35;;;13.50;;
34505;SDS011;20748;42.632;23.198;2023-03-05T10:03:55;22.90;;;10.32;;
34505;SDS011;20748;42.632;23.198;2023-03-05T10:06:30;19.95;;;8.48;;
34505;SDS011;20748;42.632;23.198;2023-03-05T10:09:05;17.45;;;7.30;;
34505;SDS011;20748;42.632;23.198;2023-03-05T10:11:44;17.42;;;7.80;;
34505;SDS011;20748;42.632;23.198;2023-03-05T10:14:23;32.00;;;12.40;;
34505;SDS011;20748;42.632;23.198;2023-03-05T10:17:02;19.48;;;8.40;;
34505;SDS011;20748;42.632;23.198;2023-03-05T10:19:55;19.63;;;7.10;;
34505;SDS011;20748;42.632;23.198;2023-03-05T10:22:51;18.58;;;7.72;;
34505;SDS011;20748;42.632;23.198;2023-03-05T10:25:39;18.38;;;7.25;;
34505;SDS011;20748;42.632;23.198;2023-03-05T10:28:25;16.63;;;7.30;;
34505;SDS011;20748;42.632;23.198;2023-03-05T10:31:11;16.17;;;6.78;;
34505;SDS011;20748;42.632;23.198;2023-03-05T10:34:14;17.17;;;7.80;;
34505;SDS011;20748;42.632;23.198;2023-03-05T10:37:01;20.20;;;7.82;;
34505;SDS011;20748;42.632;23.198;2023-03-05T10:39:50;24.67;;;11.98;;
34505;SDS011;20748;42.632;23.198;2023-03-05T10:42:33;28.02;;;13.85;;
34505;SDS011;20748;42.632;23.198;2023-03-05T10:47:47;21.58;;;8.25;;
34505;SDS011;20748;42.632;23.198;2023-03-05T10:50:24;20.23;;;9.48;;
34505;SDS011;20748;42.632;23.198;2023-03-05T10:53:03;18.83;;;7.82;;
34505;SDS011;20748;42.632;23.198;2023-03-05T10:55:44;15.80;;;7.10;;
34505;SDS011;20748;42.632;23.198;2023-03-05T10:58:16;14.32;;;6.35;;
34505;SDS011;20748;42.632;23.198;2023-03-05T11:00:59;17.73;;;7.82;;
34505;SDS011;20748;42.632;23.198;2023-03-05T11:03:44;13.15;;;6.85;;
34505;SDS011;20748;42.632;23.198;2023-03-05T11:06:26;12.70;;;6.15;;
34505;SDS011;20748;42.632;23.198;2023-03-05T11:09:16;18.83;;;9.85;;
34505;SDS011;20748;42.632;23.198;2023-03-05T11:12:04;27.20;;;11.90;;
34505;SDS011;20748;42.632;23.198;2023-03-05T11:14:42;25.75;;;10.60;;
34505;SDS011;20748;42.632;23.198;2023-03-05T11:17:27;24.65;;;8.05;;
34505;SDS011;20748;42.632;23.198;2023-03-05T11:23:09;27.25;;;10.70;;
34505;SDS011;20748;42.632;23.198;2023-03-05T11:25:50;20.65;;;9.15;;
34505;SDS011;20748;42.632;23.198;2023-03-05T11:28:26;17.77;;;7.88;;
34505;SDS011;20748;42.632;23.198;2023-03-05T11:31:06;16.13;;;7.25;;
34505;SDS011;20748;42.632;23.198;2023-03-05T11:33:55;30.90;;;11.48;;
34505;SDS011;20748;42.632;23.198;2023-03-05T11:36:30;19.77;;;9.40;;
34505;SDS011;20748;42.632;23.198;2023-03-05T11:39:13;17.15;;;6.20;;
34505;SDS011;20748;42.632;23.198;2023-03-05T11:41:48;16.00;;;7.53;;
34505;SDS011;20748;42.632;23.198;2023-03-05T11:44:23;15.48;;;7.18;;
34505;SDS011;20748;42.632;23.198;2023-03-05T11:46:58;13.88;;;5.97;;
34505;SDS011;20748;42.632;23.198;2023-03-05T11:49:34;12.85;;;5.78;;
34505;SDS011;20748;42.632;23.198;2023-03-05T11:52:14;15.85;;;6.82;;
34505;SDS011;20748;42.632;23.198;2023-03-05T11:54:55;12.93;;;6.72;;
34505;SDS011;20748;42.632;23.198;2023-03-05T11:57:37;13.68;;;6.20;;
34505;SDS011;20748;42.632;23.198;2023-03-05T12:00:15;19.77;;;8.52;;
34505;SDS011;20748;42.632;23.198;2023-03-05T12:02:51;19.63;;;8.60;;
34505;SDS011;20748;42.632;23.198;2023-03-05T12:05:25;19.00;;;6.05;;
34505;SDS011;20748;42.632;23.198;2023-03-05T12:07:59;14.43;;;6.20;;
34505;SDS011;20748;42.632;23.198;2023-03-05T12:10:33;17.13;;;7.45;;
34505;SDS011;20748;42.632;23.198;2023-03-05T12:13:09;17.10;;;7.20;;
34505;SDS011;20748;42.632;23.198;2023-03-05T12:15:55;17.02;;;7.60;;
34505;SDS011;20748;42.632;23.198;2023-03-05T12:18:37;14.40;;;6.07;;
34505;SDS011;20748;42.632;23.198;2023-03-05T12:21:22;18.88;;;7.63;;
34505;SDS011;20748;42.632;23.198;2023-03-05T12:24:03;12.00;;;6.03;;
34505;SDS011;20748;42.632;23.198;2023-03-05T12:27:15;18.08;;;8.18;;
34505;SDS011;20748;42.632;23.198;2023-03-05T12:30:02;14.68;;;5.95;;
34505;SDS011;20748;42.632;23.198;2023-03-05T12:35:34;12.60;;;5.75;;
34505;SDS011;20748;42.632;23.198;2023-03-05T12:38:17;18.92;;;5.80;;
34505;SDS011;20748;42.632;23.198;2023-03-05T12:44:18;12.00;;;4.97;;
34505;SDS011;20748;42.632;23.198;2023-03-05T12:49:49;11.93;;;6.15;;
34505;SDS011;20748;42.632;23.198;2023-03-05T12:52:23;13.70;;;7.30;;
34505;SDS011;20748;42.632;23.198;2023-03-05T12:55:12;13.05;;;6.32;;
34505;SDS011;20748;42.632;23.198;2023-03-05T12:57:51;20.35;;;5.78;;
34505;SDS011;20748;42.632;23.198;2023-03-05T13:00:29;12.55;;;5.75;;
34505;SDS011;20748;42.632;23.198;2023-03-05T13:05:47;16.65;;;6.40;;
34505;SDS011;20748;42.632;23.198;2023-03-05T13:08:21;12.75;;;6.18;;
34505;SDS011;20748;42.632;23.198;2023-03-05T13:10:57;12.05;;;5.43;;
34505;SDS011;20748;42.632;23.198;2023-03-05T13:13:34;14.70;;;6.13;;
34505;SDS011;20748;42.632;23.198;2023-03-05T13:16:15;15.98;;;6.32;;
34505;SDS011;20748;42.632;23.198;2023-03-05T13:18:49;12.30;;;5.40;;
34505;SDS011;20748;42.632;23.198;2023-03-05T13:21:23;12.57;;;5.32;;
34505;SDS011;20748;42.632;23.198;2023-03-05T13:23:57;9.15;;;5.03;;
34505;SDS011;20748;42.632;23.198;2023-03-05T13:26:35;14.52;;;6.13;;
34505;SDS011;20748;42.632;23.198;2023-03-05T13:29:10;13.40;;;4.97;;
34505;SDS011;20748;42.632;23.198;2023-03-05T13:31:45;10.13;;;4.00;;
34505;SDS011;20748;42.632;23.198;2023-03-05T13:34:20;11.45;;;4.10;;
34505;SDS011;20748;42.632;23.198;2023-03-05T13:36:58;13.63;;;5.97;;
34505;SDS011;20748;42.632;23.198;2023-03-05T13:39:32;11.02;;;4.57;;
34505;SDS011;20748;42.632;23.198;2023-03-05T13:42:14;10.43;;;4.15;;
34505;SDS011;20748;42.632;23.198;2023-03-05T13:47:28;9.95;;;4.70;;
34505;SDS011;20748;42.632;23.198;2023-03-05T13:50:03;12.45;;;5.80;;
34505;SDS011;20748;42.632;23.198;2023-03-05T13:52:37;32.22;;;11.80;;
34505;SDS011;20748;42.632;23.198;2023-03-05T13:55:11;19.85;;;7.25;;
34505;SDS011;20748;42.632;23.198;2023-03-05T13:57:47;13.82;;;6.25;;
34505;SDS011;20748;42.632;23.198;2023-03-05T14:00:25;12.50;;;5.75;;
34505;SDS011;20748;42.632;23.198;2023-03-05T14:03:07;21.85;;;11.02;;
34505;SDS011;20748;42.632;23.198;2023-03-05T14:05:42;12.73;;;5.57;;
34505;SDS011;20748;42.632;23.198;2023-03-05T14:08:15;14.85;;;7.30;;
34505;SDS011;20748;42.632;23.198;2023-03-05T14:10:51;15.25;;;7.40;;
34505;SDS011;20748;42.632;23.198;2023-03-05T14:13:25;14.82;;;7.60;;
34505;SDS011;20748;42.632;23.198;2023-03-05T14:16:02;11.60;;;6.35;;
34505;SDS011;20748;42.632;23.198;2023-03-05T14:18:36;20.70;;;8.10;;
34505;SDS011;20748;42.632;23.198;2023-03-05T14:21:10;14.32;;;6.03;;
34505;SDS011;20748;42.632;23.198;2023-03-05T14:23:43;16.35;;;8.02;;
34505;SDS011;20748;42.632;23.198;2023-03-05T14:26:18;14.68;;;6.38;;
34505;SDS011;20748;42.632;23.198;2023-03-05T14:28:55;15.43;;;6.60;;
34505;SDS011;20748;42.632;23.198;2023-03-05T14:31:29;16.98;;;8.05;;
34505;SDS011;20748;42.632;23.198;2023-03-05T14:34:06;19.20;;;7.07;;
34505;SDS011;20748;42.632;23.198;2023-03-05T14:36:39;15.02;;;6.72;;
34505;SDS011;20748;42.632;23.198;2023-03-05T14:42:27;15.10;;;7.55;;
34505;SDS011;20748;42.632;23.198;2023-03-05T14:45:09;17.85;;;6.93;;
34505;SDS011;20748;42.632;23.198;2023-03-05T14:47:43;12.50;;;5.78;;
34505;SDS011;20748;42.632;23.198;2023-03-05T14:50:17;10.65;;;5.50;;
34505;SDS011;20748;42.632;23.198;2023-03-05T14:52:52;14.15;;;6.68;;
34505;SDS011;20748;42.632;23.198;2023-03-05T14:55:27;21.55;;;8.27;;
34505;SDS011;20748;42.632;23.198;2023-03-05T14:58:02;16.95;;;6.95;;
34505;SDS011;20748;42.632;23.198;2023-03-05T15:00:38;14.85;;;6.30;;
34505;SDS011;20748;42.632;23.198;2023-03-05T15:03:10;13.45;;;6.63;;
34505;SDS011;20748;42.632;23.198;2023-03-05T15:05:43;18.15;;;9.57;;
34505;SDS011;20748;42.632;23.198;2023-03-05T15:08:19;12.95;;;6.80;;
34505;SDS011;20748;42.632;23.198;2023-03-05T15:10:53;11.98;;;4.93;;
34505;SDS011;20748;42.632;23.198;2023-03-05T15:13:26;22.33;;;9.55;;
34505;SDS011;20748;42.632;23.198;2023-03-05T15:15:58;28.75;;;13.13;;
34505;SDS011;20748;42.632;23.198;2023-03-05T15:18:31;18.40;;;7.63;;
34505;SDS011;20748;42.632;23.198;2023-03-05T15:21:04;15.77;;;7.10;;
34505;SDS011;20748;42.632;23.198;2023-03-05T15:23:36;18.48;;;8.07;;
34505;SDS011;20748;42.632;23.198;2023-03-05T15:26:10;21.15;;;9.70;;